sensor_id;sensor_type;location;lat;lon;timestamp;noise_LAeq;noise_LA_min;noise_LA_max;noise_LA01;noise_LA95
38366;Laerm;943;51.568;6.998;2023-02-22T00:01:17;37.22;32.79;48.82;;
38366;Laerm;943;51.568;6.998;2023-02-22T00:04:06;38.02;32.21;56.94;;
38366;Laerm;943;51.568;6.998;2023-02-22T00:06:38;35.95;32.11;45.77;;
38366;Laerm;943;51.568;6.998;2023-02-22T00:09:07;37.23;33.21;45.33;;
38366;Laerm;943;51.568;6.998;2023-02-22T00:11:37;36.39;32.79;44.01;;
38366;Laerm;943;51.568;6.998;2023-02-22T00:14:07;38.15;33.62;46.32;;
38366;Laerm;943;51.568;6.998;2023-02-22T00:16:38;38.71;34.26;48.87;;
38366;Laerm;943;51.568;6.998;2023-02-22T00:19:07;38.14;33.65;45.56;;
38366;Laerm;943;51.568;6.998;2023-02-22T00:21:38;38.37;33.68;46.92;;
38366;Laerm;943;51.568;6.998;2023-02-22T00:24:09;37.15;32.43;43.57;;
38366;Laerm;943;51.568;6.998;2023-02-22T00:26:55;35.98;31.79;43.31;;
38366;Laerm;943;51.568;6.998;2023-02-22T00:29:26;38.06;33.19;49.27;;
38366;Laerm;943;51.568;6.998;2023-02-22T00:31:57;37.79;32.59;48.98;;
38366;Laerm;943;51.568;6.998;2023-02-22T00:34:28;37.72;33.43;47.08;;
38366;Laerm;943;51.568;6.998;2023-02-22T00:36:58;36.70;33.65;53.41;;
38366;Laerm;943;51.568;6.998;2023-02-22T00:39:32;37.04;33.09;52.66;;
38366;Laerm;943;51.568;6.998;2023-02-22T00:42:04;34.98;31.73;41.44;;
38366;Laerm;943;51.568;6.998;2023-02-22T00:44:34;36.01;31.93;41.92;;
38366;Laerm;943;51.568;6.998;2023-02-22T00:47:05;36.22;32.45;41.97;;
38366;Laerm;943;51.568;6.998;2023-02-22T00:49:36;37.17;33.99;40.83;;
38366;Laerm;943;51.568;6.998;2023-02-22T00:52:06;37.50;33.39;42.53;;
38366;Laerm;943;51.568;6.998;2023-02-22T00:54:37;37.08;33.30;41.42;;
38366;Laerm;943;51.568;6.998;2023-02-22T00:57:08;37.20;33.47;43.13;;
38366;Laerm;943;51.568;6.998;2023-02-22T00:59:39;38.44;33.58;43.32;;
38366;Laerm;943;51.568;6.998;2023-02-22T01:02:09;38.58;33.14;45.81;;
38366;Laerm;943;51.568;6.998;2023-02-22T01:04:41;37.96;34.39;44.21;;
38366;Laerm;943;51.568;6.998;2023-02-22T01:07:11;37.86;33.14;43.20;;
38366;Laerm;943;51.568;6.998;2023-02-22T01:09:43;40.25;35.53;45.98;;
38366;Laerm;943;51.568;6.998;2023-02-22T01:12:13;40.75;35.12;45.68;;
38366;Laerm;943;51.568;6.998;2023-02-22T01:14:44;39.06;34.43;45.52;;
38366;Laerm;943;51.568;6.998;2023-02-22T01:17:13;39.58;35.26;44.33;;
38366;Laerm;943;51.568;6.998;2023-02-22T01:19:43;40.50;35.70;45.20;;
38366;Laerm;943;51.568;6.998;2023-02-22T01:22:12;39.14;35.41;47.71;;
38366;Laerm;943;51.568;6.998;2023-02-22T01:24:42;40.29;36.33;56.17;;
38366;Laerm;943;51.568;6.998;2023-02-22T01:27:13;38.87;33.80;48.46;;
38366;Laerm;943;51.568;6.998;2023-02-22T01:29:47;37.71;34.04;41.94;;
38366;Laerm;943;51.568;6.998;2023-02-22T01:32:17;38.01;33.93;43.93;;
38366;Laerm;943;51.568;6.998;2023-02-22T01:34:46;37.93;34.41;42.91;;
38366;Laerm;943;51.568;6.998;2023-02-22T01:37:17;37.96;33.90;42.31;;
38366;Laerm;943;51.568;6.998;2023-02-22T01:39:47;37.99;34.86;42.48;;
38366;Laerm;943;51.568;6.998;2023-02-22T01:42:17;37.36;33.74;43.62;;
38366;Laerm;943;51.568;6.998;2023-02-22T01:48:11;37.29;33.88;42.95;;
38366;Laerm;943;51.568;6.998;2023-02-22T01:51:17;36.50;32.90;41.61;;
38366;Laerm;943;51.568;6.998;2023-02-22T01:54:46;36.83;32.68;42.32;;
38366;Laerm;943;51.568;6.998;2023-02-22T01:57:24;47.73;32.33;67.07;;
38366;Laerm;943;51.568;6.998;2023-02-22T02:00:07;51.49;33.79;69.52;;
38366;Laerm;943;51.568;6.998;2023-02-22T02:03:11;51.65;32.39;69.97;;
38366;Laerm;943;51.568;6.998;2023-02-22T02:05:44;51.00;33.76;68.81;;
38366;Laerm;943;51.568;6.998;2023-02-22T02:09:18;49.20;33.52;68.65;;
38366;Laerm;943;51.568;6.998;2023-02-22T02:11:49;48.71;33.58;67.84;;
38366;Laerm;943;51.568;6.998;2023-02-22T02:14:20;50.73;33.45;67.77;;
38366;Laerm;943;51.568;6.998;2023-02-22T02:16:52;48.80;32.73;70.05;;
38366;Laerm;943;51.568;6.998;2023-02-22T02:20:04;44.23;32.32;67.46;;
38366;Laerm;943;51.568;6.998;2023-02-22T02:26:33;38.21;32.78;59.33;;
38366;Laerm;943;51.568;6.998;2023-02-22T02:39:12;49.72;34.21;66.97;;
38366;Laerm;943;51.568;6.998;2023-02-22T02:41:50;51.24;33.10;69.07;;
38366;Laerm;943;51.568;6.998;2023-02-22T02:44:40;51.43;33.08;68.51;;
38366;Laerm;943;51.568;6.998;2023-02-22T02:47:26;51.80;33.15;71.52;;
38366;Laerm;943;51.568;6.998;2023-02-22T02:50:31;45.94;33.29;66.77;;
38366;Laerm;943;51.568;6.998;2023-02-22T02:53:07;49.45;33.49;67.92;;
38366;Laerm;943;51.568;6.998;2023-02-22T02:55:37;51.50;32.24;68.54;;
38366;Laerm;943;51.568;6.998;2023-02-22T02:58:07;50.89;32.31;66.32;;
38366;Laerm;943;51.568;6.998;2023-02-22T03:00:40;50.89;32.13;69.02;;
38366;Laerm;943;51.568;6.998;2023-02-22T03:07:09;49.85;32.83;67.38;;
38366;Laerm;943;51.568;6.998;2023-02-22T03:16:49;50.62;34.40;68.89;;
38366;Laerm;943;51.568;6.998;2023-02-22T03:22:56;49.16;34.04;71.63;;
38366;Laerm;943;51.568;6.998;2023-02-22T03:25:42;42.05;34.62;58.16;;
38366;Laerm;943;51.568;6.998;2023-02-22T03:28:19;45.08;33.39;67.65;;
38366;Laerm;943;51.568;6.998;2023-02-22T03:31:03;47.94;33.68;71.51;;
38366;Laerm;943;51.568;6.998;2023-02-22T03:34:06;48.00;34.26;66.89;;
38366;Laerm;943;51.568;6.998;2023-02-22T03:36:51;50.88;35.18;68.32;;
38366;Laerm;943;51.568;6.998;2023-02-22T03:39:26;51.45;33.83;72.63;;
38366;Laerm;943;51.568;6.998;2023-02-22T03:42:12;45.08;34.98;68.01;;
38366;Laerm;943;51.568;6.998;2023-02-22T03:44:46;42.24;35.23;59.02;;
38366;Laerm;943;51.568;6.998;2023-02-22T03:47:29;42.93;34.56;60.31;;
38366;Laerm;943;51.568;6.998;2023-02-22T03:50:17;43.38;33.56;62.00;;
38366;Laerm;943;51.568;6.998;2023-02-22T03:52:47;44.05;34.96;59.23;;
38366;Laerm;943;51.568;6.998;2023-02-22T03:55:23;45.19;35.16;57.81;;
38366;Laerm;943;51.568;6.998;2023-02-22T03:57:59;45.12;34.65;59.82;;
38366;Laerm;943;51.568;6.998;2023-02-22T04:00:33;51.57;35.54;67.02;;
38366;Laerm;943;51.568;6.998;2023-02-22T04:03:02;52.22;35.09;68.67;;
38366;Laerm;943;51.568;6.998;2023-02-22T04:05:31;52.73;36.50;70.30;;
38366;Laerm;943;51.568;6.998;2023-02-22T04:07:59;50.64;35.72;70.90;;
38366;Laerm;943;51.568;6.998;2023-02-22T04:10:27;52.06;36.73;69.24;;
38366;Laerm;943;51.568;6.998;2023-02-22T04:12:55;49.42;36.42;67.04;;
38366;Laerm;943;51.568;6.998;2023-02-22T04:15:24;47.27;36.03;65.86;;
38366;Laerm;943;51.568;6.998;2023-02-22T04:17:57;52.92;35.84;71.17;;
38366;Laerm;943;51.568;6.998;2023-02-22T04:20:26;51.89;34.99;68.50;;
38366;Laerm;943;51.568;6.998;2023-02-22T04:23:06;51.78;35.52;66.33;;
38366;Laerm;943;51.568;6.998;2023-02-22T04:25:37;51.82;36.08;68.33;;
38366;Laerm;943;51.568;6.998;2023-02-22T04:28:16;51.68;36.59;66.22;;
38366;Laerm;943;51.568;6.998;2023-02-22T04:31:04;53.15;37.90;68.21;;
38366;Laerm;943;51.568;6.998;2023-02-22T04:33:32;51.94;36.74;68.41;;
38366;Laerm;943;51.568;6.998;2023-02-22T04:36:00;50.62;37.57;67.89;;
38366;Laerm;943;51.568;6.998;2023-02-22T04:38:31;50.20;38.76;67.01;;
38366;Laerm;943;51.568;6.998;2023-02-22T04:41:00;50.56;37.90;65.80;;
38366;Laerm;943;51.568;6.998;2023-02-22T04:43:28;50.54;38.51;69.02;;
38366;Laerm;943;51.568;6.998;2023-02-22T04:46:04;51.38;38.36;65.95;;
38366;Laerm;943;51.568;6.998;2023-02-22T04:48:32;50.58;37.95;70.08;;
38366;Laerm;943;51.568;6.998;2023-02-22T04:51:00;51.54;39.42;65.86;;
38366;Laerm;943;51.568;6.998;2023-02-22T04:53:30;51.11;37.39;66.70;;
38366;Laerm;943;51.568;6.998;2023-02-22T04:55:58;49.85;36.85;64.42;;
38366;Laerm;943;51.568;6.998;2023-02-22T04:58:27;50.75;38.40;69.63;;
38366;Laerm;943;51.568;6.998;2023-02-22T05:00:54;50.37;38.77;66.37;;
38366;Laerm;943;51.568;6.998;2023-02-22T05:03:22;51.74;39.42;71.73;;
38366;Laerm;943;51.568;6.998;2023-02-22T05:05:52;49.06;38.45;65.56;;
38366;Laerm;943;51.568;6.998;2023-02-22T05:08:20;48.00;39.52;66.72;;
38366;Laerm;943;51.568;6.998;2023-02-22T05:10:48;50.80;39.18;72.22;;
38366;Laerm;943;51.568;6.998;2023-02-22T05:13:15;59.75;39.41;82.49;;
38366;Laerm;943;51.568;6.998;2023-02-22T05:15:43;52.19;39.44;65.08;;
38366;Laerm;943;51.568;6.998;2023-02-22T05:18:11;52.39;39.69;65.05;;
38366;Laerm;943;51.568;6.998;2023-02-22T05:20:39;52.15;39.88;68.58;;
38366;Laerm;943;51.568;6.998;2023-02-22T05:23:08;49.84;39.99;67.64;;
38366;Laerm;943;51.568;6.998;2023-02-22T05:25:36;47.47;38.63;67.68;;
38366;Laerm;943;51.568;6.998;2023-02-22T05:28:12;51.06;40.13;66.62;;
38366;Laerm;943;51.568;6.998;2023-02-22T05:30:41;51.58;39.31;64.83;;
38366;Laerm;943;51.568;6.998;2023-02-22T05:33:09;51.84;40.94;68.47;;
38366;Laerm;943;51.568;6.998;2023-02-22T05:35:37;51.65;40.69;72.75;;
38366;Laerm;943;51.568;6.998;2023-02-22T05:38:06;54.31;40.75;70.25;;
38366;Laerm;943;51.568;6.998;2023-02-22T05:40:34;52.65;41.14;65.10;;
38366;Laerm;943;51.568;6.998;2023-02-22T05:43:02;54.54;41.82;70.42;;
38366;Laerm;943;51.568;6.998;2023-02-22T05:45:30;52.49;41.09;68.38;;
38366;Laerm;943;51.568;6.998;2023-02-22T05:47:59;50.86;40.44;71.57;;
38366;Laerm;943;51.568;6.998;2023-02-22T05:50:27;50.48;41.56;65.78;;
38366;Laerm;943;51.568;6.998;2023-02-22T05:52:55;46.62;41.13;62.14;;
38366;Laerm;943;51.568;6.998;2023-02-22T05:55:24;48.69;40.39;67.23;;
38366;Laerm;943;51.568;6.998;2023-02-22T05:57:52;54.39;41.19;71.27;;
38366;Laerm;943;51.568;6.998;2023-02-22T06:00:31;52.68;41.09;77.00;;
38366;Laerm;943;51.568;6.998;2023-02-22T06:03:09;73.19;40.43;96.72;;
38366;Laerm;943;51.568;6.998;2023-02-22T06:05:40;49.84;41.17;62.46;;
38366;Laerm;943;51.568;6.998;2023-02-22T06:08:09;46.23;41.83;59.78;;
38366;Laerm;943;51.568;6.998;2023-02-22T06:10:37;45.17;40.96;55.23;;
38366;Laerm;943;51.568;6.998;2023-02-22T06:13:06;46.71;41.36;59.42;;
38366;Laerm;943;51.568;6.998;2023-02-22T06:15:33;46.33;41.92;58.66;;
38366;Laerm;943;51.568;6.998;2023-02-22T06:18:02;46.41;42.01;57.99;;
38366;Laerm;943;51.568;6.998;2023-02-22T06:20:30;46.80;41.84;63.34;;
38366;Laerm;943;51.568;6.998;2023-02-22T06:22:59;45.52;42.49;56.28;;
38366;Laerm;943;51.568;6.998;2023-02-22T06:25:30;46.09;42.32;56.14;;
38366;Laerm;943;51.568;6.998;2023-02-22T06:28:00;47.22;41.97;64.71;;
38366;Laerm;943;51.568;6.998;2023-02-22T06:30:30;47.91;43.00;63.42;;
38366;Laerm;943;51.568;6.998;2023-02-22T06:32:59;51.22;42.88;69.62;;
38366;Laerm;943;51.568;6.998;2023-02-22T06:35:26;46.96;42.76;62.67;;
38366;Laerm;943;51.568;6.998;2023-02-22T06:37:54;46.76;41.80;55.05;;
38366;Laerm;943;51.568;6.998;2023-02-22T06:40:23;46.50;43.00;58.76;;
38366;Laerm;943;51.568;6.998;2023-02-22T06:42:57;46.33;42.03;61.41;;
38366;Laerm;943;51.568;6.998;2023-02-22T06:45:27;47.89;42.10;64.03;;
38366;Laerm;943;51.568;6.998;2023-02-22T06:47:55;53.48;42.57;72.10;;
38366;Laerm;943;51.568;6.998;2023-02-22T06:50:29;52.04;43.02;68.33;;
38366;Laerm;943;51.568;6.998;2023-02-22T06:52:58;49.62;43.70;65.41;;
38366;Laerm;943;51.568;6.998;2023-02-22T06:55:33;52.13;43.51;68.91;;
38366;Laerm;943;51.568;6.998;2023-02-22T06:58:03;52.49;43.00;71.98;;
38366;Laerm;943;51.568;6.998;2023-02-22T07:00:32;52.75;43.16;75.40;;
38366;Laerm;943;51.568;6.998;2023-02-22T07:03:03;47.79;42.66;70.82;;
38366;Laerm;943;51.568;6.998;2023-02-22T07:05:31;50.88;42.92;69.59;;
38366;Laerm;943;51.568;6.998;2023-02-22T07:08:06;47.12;43.17;60.23;;
38366;Laerm;943;51.568;6.998;2023-02-22T07:10:37;47.32;41.79;66.46;;
38366;Laerm;943;51.568;6.998;2023-02-22T07:13:07;48.43;43.56;72.46;;
38366;Laerm;943;51.568;6.998;2023-02-22T07:15:35;47.72;42.96;62.88;;
38366;Laerm;943;51.568;6.998;2023-02-22T07:18:04;47.24;43.51;62.35;;
38366;Laerm;943;51.568;6.998;2023-02-22T07:20:33;49.00;42.80;66.01;;
38366;Laerm;943;51.568;6.998;2023-02-22T07:23:17;46.89;42.80;65.80;;
38366;Laerm;943;51.568;6.998;2023-02-22T07:25:47;52.66;42.61;71.97;;
38366;Laerm;943;51.568;6.998;2023-02-22T07:28:16;52.79;42.27;71.36;;
38366;Laerm;943;51.568;6.998;2023-02-22T07:30:43;51.12;42.46;69.62;;
38366;Laerm;943;51.568;6.998;2023-02-22T07:33:12;50.67;42.30;73.60;;
38366;Laerm;943;51.568;6.998;2023-02-22T07:35:48;51.68;43.07;68.32;;
38366;Laerm;943;51.568;6.998;2023-02-22T07:38:19;47.09;42.34;64.27;;
38366;Laerm;943;51.568;6.998;2023-02-22T07:40:47;46.09;42.90;60.32;;
38366;Laerm;943;51.568;6.998;2023-02-22T07:43:28;47.48;42.39;59.53;;
38366;Laerm;943;51.568;6.998;2023-02-22T07:46:00;44.92;41.07;56.56;;
38366;Laerm;943;51.568;6.998;2023-02-22T07:48:31;45.08;42.38;55.43;;
38366;Laerm;943;51.568;6.998;2023-02-22T07:50:59;48.30;41.71;66.29;;
38366;Laerm;943;51.568;6.998;2023-02-22T07:53:31;47.19;42.70;63.39;;
38366;Laerm;943;51.568;6.998;2023-02-22T07:56:04;47.98;43.04;70.52;;
38366;Laerm;943;51.568;6.998;2023-02-22T07:58:32;50.74;42.64;69.63;;
38366;Laerm;943;51.568;6.998;2023-02-22T08:01:00;53.15;42.66;70.24;;
38366;Laerm;943;51.568;6.998;2023-02-22T08:03:33;48.86;41.73;64.39;;
38366;Laerm;943;51.568;6.998;2023-02-22T08:06:07;44.77;41.40;56.27;;
38366;Laerm;943;51.568;6.998;2023-02-22T08:08:35;45.83;42.30;54.82;;
38366;Laerm;943;51.568;6.998;2023-02-22T08:11:03;45.82;41.66;62.11;;
38366;Laerm;943;51.568;6.998;2023-02-22T08:13:31;46.52;42.26;58.88;;
38366;Laerm;943;51.568;6.998;2023-02-22T08:15:59;46.56;42.27;62.52;;
38366;Laerm;943;51.568;6.998;2023-02-22T08:18:27;49.58;42.29;66.80;;
38366;Laerm;943;51.568;6.998;2023-02-22T08:20:55;46.18;42.92;56.48;;
38366;Laerm;943;51.568;6.998;2023-02-22T08:23:25;46.99;43.07;62.56;;
38366;Laerm;943;51.568;6.998;2023-02-22T08:25:54;45.68;42.54;52.85;;
38366;Laerm;943;51.568;6.998;2023-02-22T08:28:24;46.54;42.22;65.32;;
38366;Laerm;943;51.568;6.998;2023-02-22T08:30:52;47.13;42.93;64.61;;
38366;Laerm;943;51.568;6.998;2023-02-22T08:33:21;50.44;42.84;67.20;;
38366;Laerm;943;51.568;6.998;2023-02-22T08:35:49;50.49;43.80;69.42;;
38366;Laerm;943;51.568;6.998;2023-02-22T08:38:28;50.68;42.37;67.24;;
38366;Laerm;943;51.568;6.998;2023-02-22T08:40:56;48.01;43.55;63.60;;
38366;Laerm;943;51.568;6.998;2023-02-22T08:43:25;46.91;42.30;59.09;;
38366;Laerm;943;51.568;6.998;2023-02-22T08:45:53;46.19;42.84;58.64;;
38366;Laerm;943;51.568;6.998;2023-02-22T08:48:24;46.24;43.11;57.50;;
38366;Laerm;943;51.568;6.998;2023-02-22T08:50:53;45.20;41.71;56.42;;
38366;Laerm;943;51.568;6.998;2023-02-22T08:53:21;45.57;41.89;55.69;;
38366;Laerm;943;51.568;6.998;2023-02-22T08:55:49;46.27;42.92;60.36;;
38366;Laerm;943;51.568;6.998;2023-02-22T08:58:17;46.58;42.66;59.70;;
38366;Laerm;943;51.568;6.998;2023-02-22T09:00:45;47.09;43.25;55.94;;
38366;Laerm;943;51.568;6.998;2023-02-22T09:03:14;53.44;42.60;74.11;;
38366;Laerm;943;51.568;6.998;2023-02-22T09:05:43;53.65;43.40;71.13;;
38366;Laerm;943;51.568;6.998;2023-02-22T09:08:12;53.67;43.79;70.76;;
38366;Laerm;943;51.568;6.998;2023-02-22T09:10:40;52.65;42.48;67.04;;
38366;Laerm;943;51.568;6.998;2023-02-22T09:13:08;49.77;43.11;68.53;;
38366;Laerm;943;51.568;6.998;2023-02-22T09:15:37;52.59;42.99;67.41;;
38366;Laerm;943;51.568;6.998;2023-02-22T09:18:12;52.55;42.70;69.97;;
38366;Laerm;943;51.568;6.998;2023-02-22T09:20:41;51.78;43.07;71.35;;
38366;Laerm;943;51.568;6.998;2023-02-22T09:23:09;48.35;43.88;59.62;;
38366;Laerm;943;51.568;6.998;2023-02-22T09:25:37;47.68;42.94;64.15;;
38366;Laerm;943;51.568;6.998;2023-02-22T09:28:07;48.51;43.61;60.50;;
38366;Laerm;943;51.568;6.998;2023-02-22T09:30:36;51.75;44.49;69.93;;
38366;Laerm;943;51.568;6.998;2023-02-22T09:33:18;48.78;43.32;64.85;;
38366;Laerm;943;51.568;6.998;2023-02-22T09:35:48;49.05;43.18;61.08;;
38366;Laerm;943;51.568;6.998;2023-02-22T09:38:22;50.20;42.80;78.78;;
38366;Laerm;943;51.568;6.998;2023-02-22T09:41:15;46.40;42.41;55.78;;
38366;Laerm;943;51.568;6.998;2023-02-22T09:47:37;47.37;43.58;64.48;;
38366;Laerm;943;51.568;6.998;2023-02-22T09:50:22;47.47;43.18;66.81;;
38366;Laerm;943;51.568;6.998;2023-02-22T09:56:10;47.11;42.84;64.02;;
38366;Laerm;943;51.568;6.998;2023-02-22T09:58:47;48.53;44.01;65.61;;
38366;Laerm;943;51.568;6.998;2023-02-22T10:01:41;46.22;42.80;56.74;;
38366;Laerm;943;51.568;6.998;2023-02-22T10:04:56;49.53;43.11;69.94;;
38366;Laerm;943;51.568;6.998;2023-02-22T10:07:46;49.93;43.40;68.57;;
38366;Laerm;943;51.568;6.998;2023-02-22T10:10:22;50.85;43.33;66.81;;
38366;Laerm;943;51.568;6.998;2023-02-22T10:13:27;50.98;43.48;69.10;;
38366;Laerm;943;51.568;6.998;2023-02-22T10:25:25;46.35;42.13;61.17;;
38366;Laerm;943;51.568;6.998;2023-02-22T10:28:23;55.74;42.34;78.83;;
38366;Laerm;943;51.568;6.998;2023-02-22T10:31:07;53.35;43.71;77.61;;
38366;Laerm;943;51.568;6.998;2023-02-22T10:33:47;50.50;42.71;68.59;;
38366;Laerm;943;51.568;6.998;2023-02-22T10:36:24;47.43;42.87;62.93;;
38366;Laerm;943;51.568;6.998;2023-02-22T10:39:35;46.56;42.05;60.44;;
38366;Laerm;943;51.568;6.998;2023-02-22T10:42:08;50.86;43.37;68.82;;
38366;Laerm;943;51.568;6.998;2023-02-22T10:44:39;51.34;43.43;62.58;;
38366;Laerm;943;51.568;6.998;2023-02-22T10:47:15;47.98;43.90;60.48;;
38366;Laerm;943;51.568;6.998;2023-02-22T10:49:57;47.38;42.94;57.23;;
38366;Laerm;943;51.568;6.998;2023-02-22T10:52:33;47.58;42.60;69.46;;
38366;Laerm;943;51.568;6.998;2023-02-22T10:55:03;47.28;43.51;58.01;;
38366;Laerm;943;51.568;6.998;2023-02-22T10:57:50;47.43;42.26;62.11;;
38366;Laerm;943;51.568;6.998;2023-02-22T11:00:38;47.40;43.07;60.82;;
38366;Laerm;943;51.568;6.998;2023-02-22T11:03:21;46.99;41.88;62.32;;
38366;Laerm;943;51.568;6.998;2023-02-22T11:05:50;46.80;42.98;59.25;;
38366;Laerm;943;51.568;6.998;2023-02-22T11:08:29;46.68;42.95;61.20;;
38366;Laerm;943;51.568;6.998;2023-02-22T11:11:25;48.89;43.22;68.79;;
38366;Laerm;943;51.568;6.998;2023-02-22T11:13:57;48.04;41.67;67.80;;
38366;Laerm;943;51.568;6.998;2023-02-22T11:16:48;52.33;41.23;67.43;;
38366;Laerm;943;51.568;6.998;2023-02-22T11:19:28;53.17;41.34;69.16;;
38366;Laerm;943;51.568;6.998;2023-02-22T11:22:40;50.00;40.75;67.26;;
38366;Laerm;943;51.568;6.998;2023-02-22T11:25:20;45.61;40.12;59.73;;
38366;Laerm;943;51.568;6.998;2023-02-22T11:27:50;44.60;39.89;67.12;;
38366;Laerm;943;51.568;6.998;2023-02-22T11:30:26;44.35;39.70;59.73;;
38366;Laerm;943;51.568;6.998;2023-02-22T11:33:18;44.10;38.96;55.58;;
38366;Laerm;943;51.568;6.998;2023-02-22T11:36:02;50.32;39.66;72.43;;
38366;Laerm;943;51.568;6.998;2023-02-22T11:38:37;49.79;40.30;64.98;;
38366;Laerm;943;51.568;6.998;2023-02-22T11:41:27;49.94;39.70;69.41;;
38366;Laerm;943;51.568;6.998;2023-02-22T11:44:24;48.18;39.14;65.67;;
38366;Laerm;943;51.568;6.998;2023-02-22T11:47:00;44.52;38.88;59.34;;
38366;Laerm;943;51.568;6.998;2023-02-22T11:49:41;47.77;39.36;66.97;;
38366;Laerm;943;51.568;6.998;2023-02-22T11:52:32;46.11;40.73;56.18;;
38366;Laerm;943;51.568;6.998;2023-02-22T11:55:38;46.66;38.51;67.20;;
38366;Laerm;943;51.568;6.998;2023-02-22T12:02:23;55.98;38.39;77.10;;
38366;Laerm;943;51.568;6.998;2023-02-22T12:09:08;50.39;39.16;63.27;;
38366;Laerm;943;51.568;6.998;2023-02-22T12:21:57;44.03;39.37;63.80;;
38366;Laerm;943;51.568;6.998;2023-02-22T12:25:02;45.44;37.71;65.94;;
38366;Laerm;943;51.568;6.998;2023-02-22T12:31:28;43.16;39.35;58.50;;
38366;Laerm;943;51.568;6.998;2023-02-22T12:34:36;45.60;39.89;60.99;;
38366;Laerm;943;51.568;6.998;2023-02-22T12:41:33;45.27;39.88;65.70;;
38366;Laerm;943;51.568;6.998;2023-02-22T12:44:36;44.83;40.17;55.72;;
38366;Laerm;943;51.568;6.998;2023-02-22T12:47:20;47.65;40.32;60.91;;
38366;Laerm;943;51.568;6.998;2023-02-22T12:50:16;44.22;39.63;55.76;;
38366;Laerm;943;51.568;6.998;2023-02-22T12:56:11;48.69;41.13;65.20;;
38366;Laerm;943;51.568;6.998;2023-02-22T12:59:36;47.57;40.63;67.62;;
38366;Laerm;943;51.568;6.998;2023-02-22T13:03:01;60.00;40.00;82.20;;
38366;Laerm;943;51.568;6.998;2023-02-22T13:05:39;54.41;40.23;78.34;;
38366;Laerm;943;51.568;6.998;2023-02-22T13:08:39;63.30;41.10;85.66;;
38366;Laerm;943;51.568;6.998;2023-02-22T13:18:55;45.02;40.30;56.85;;
38366;Laerm;943;51.568;6.998;2023-02-22T13:22:08;49.97;40.50;77.07;;
38366;Laerm;943;51.568;6.998;2023-02-22T13:25:11;46.15;39.65;67.71;;
38366;Laerm;943;51.568;6.998;2023-02-22T13:28:38;45.94;39.19;67.83;;
38366;Laerm;943;51.568;6.998;2023-02-22T13:31:32;46.49;40.00;61.89;;
38366;Laerm;943;51.568;6.998;2023-02-22T13:51:08;47.29;40.73;62.97;;
38366;Laerm;943;51.568;6.998;2023-02-22T13:56:58;48.52;41.36;62.14;;
38366;Laerm;943;51.568;6.998;2023-02-22T13:59:36;47.38;41.18;61.88;;
38366;Laerm;943;51.568;6.998;2023-02-22T14:02:05;50.22;41.65;71.14;;
38366;Laerm;943;51.568;6.998;2023-02-22T14:04:41;48.53;41.56;59.50;;
38366;Laerm;943;51.568;6.998;2023-02-22T14:09:57;47.95;40.85;67.68;;
38366;Laerm;943;51.568;6.998;2023-02-22T14:18:12;52.17;40.90;68.75;;
38366;Laerm;943;51.568;6.998;2023-02-22T14:20:43;52.09;41.13;70.90;;
38366;Laerm;943;51.568;6.998;2023-02-22T14:26:29;52.06;40.25;75.18;;
38366;Laerm;943;51.568;6.998;2023-02-22T14:37:41;49.59;41.50;70.53;;
38366;Laerm;943;51.568;6.998;2023-02-22T14:40:32;48.59;40.88;69.31;;
38366;Laerm;943;51.568;6.998;2023-02-22T14:43:23;51.18;42.39;67.39;;
38366;Laerm;943;51.568;6.998;2023-02-22T14:45:57;49.72;42.59;64.68;;
38366;Laerm;943;51.568;6.998;2023-02-22T14:48:39;49.79;42.92;68.16;;
38366;Laerm;943;51.568;6.998;2023-02-22T14:51:34;51.11;41.72;66.76;;
38366;Laerm;943;51.568;6.998;2023-02-22T14:54:32;51.57;41.91;71.98;;
38366;Laerm;943;51.568;6.998;2023-02-22T14:57:19;52.94;41.90;77.07;;
38366;Laerm;943;51.568;6.998;2023-02-22T15:00:19;50.22;41.58;67.47;;
38366;Laerm;943;51.568;6.998;2023-02-22T15:02:51;50.11;45.14;66.89;;
38366;Laerm;943;51.568;6.998;2023-02-22T15:05:20;47.76;42.21;58.26;;
38366;Laerm;943;51.568;6.998;2023-02-22T15:08:07;51.50;42.46;68.16;;
38366;Laerm;943;51.568;6.998;2023-02-22T15:10:50;48.94;41.43;70.88;;
38366;Laerm;943;51.568;6.998;2023-02-22T15:13:25;47.65;40.80;64.63;;
38366;Laerm;943;51.568;6.998;2023-02-22T15:16:04;46.25;41.35;58.26;;
38366;Laerm;943;51.568;6.998;2023-02-22T15:18:44;50.52;42.17;70.19;;
38366;Laerm;943;51.568;6.998;2023-02-22T15:21:22;47.31;41.58;67.35;;
38366;Laerm;943;51.568;6.998;2023-02-22T15:24:02;49.70;40.38;74.74;;
38366;Laerm;943;51.568;6.998;2023-02-22T15:26:41;47.82;42.45;61.85;;
38366;Laerm;943;51.568;6.998;2023-02-22T15:29:38;47.60;41.79;59.65;;
38366;Laerm;943;51.568;6.998;2023-02-22T15:32:38;49.67;42.05;67.13;;
38366;Laerm;943;51.568;6.998;2023-02-22T15:35:31;56.51;42.02;80.94;;
38366;Laerm;943;51.568;6.998;2023-02-22T15:38:18;52.34;41.57;77.26;;
38366;Laerm;943;51.568;6.998;2023-02-22T15:41:03;46.57;41.33;59.12;;
38366;Laerm;943;51.568;6.998;2023-02-22T15:43:31;47.27;41.26;64.49;;
38366;Laerm;943;51.568;6.998;2023-02-22T15:46:00;47.72;41.76;64.71;;
38366;Laerm;943;51.568;6.998;2023-02-22T15:48:28;47.47;41.48;65.22;;
38366;Laerm;943;51.568;6.998;2023-02-22T15:51:11;46.99;42.11;57.12;;
38366;Laerm;943;51.568;6.998;2023-02-22T15:53:48;47.44;41.86;61.30;;
38366;Laerm;943;51.568;6.998;2023-02-22T15:56:29;51.41;42.44;77.31;;
38366;Laerm;943;51.568;6.998;2023-02-22T15:59:14;50.19;42.46;66.21;;
38366;Laerm;943;51.568;6.998;2023-02-22T16:01:50;51.12;42.15;68.50;;
38366;Laerm;943;51.568;6.998;2023-02-22T16:04:28;49.03;42.77;68.22;;
38366;Laerm;943;51.568;6.998;2023-02-22T16:07:12;51.79;42.01;76.54;;
38366;Laerm;943;51.568;6.998;2023-02-22T16:09:50;51.08;41.21;70.10;;
38366;Laerm;943;51.568;6.998;2023-02-22T16:14:50;49.17;41.53;67.86;;
38366;Laerm;943;51.568;6.998;2023-02-22T16:19:53;47.57;42.41;62.32;;
38366;Laerm;943;51.568;6.998;2023-02-22T16:22:36;49.19;43.56;62.93;;
38366;Laerm;943;51.568;6.998;2023-02-22T16:27:54;47.17;42.57;64.69;;
38366;Laerm;943;51.568;6.998;2023-02-22T16:30:38;47.79;42.47;63.70;;
38366;Laerm;943;51.568;6.998;2023-02-22T16:33:09;49.96;41.71;70.40;;
38366;Laerm;943;51.568;6.998;2023-02-22T16:35:42;49.80;41.77;67.50;;
38366;Laerm;943;51.568;6.998;2023-02-22T16:38:19;47.36;41.67;61.80;;
38366;Laerm;943;51.568;6.998;2023-02-22T16:40:56;46.37;41.75;56.78;;
38366;Laerm;943;51.568;6.998;2023-02-22T16:43:30;47.95;42.30;62.06;;
38366;Laerm;943;51.568;6.998;2023-02-22T16:46:04;48.62;42.35;66.98;;
38366;Laerm;943;51.568;6.998;2023-02-22T16:48:33;49.42;43.47;65.14;;
38366;Laerm;943;51.568;6.998;2023-02-22T16:51:27;50.25;42.59;67.85;;
38366;Laerm;943;51.568;6.998;2023-02-22T16:53:55;50.96;41.48;73.73;;
38366;Laerm;943;51.568;6.998;2023-02-22T16:56:29;56.16;41.53;75.92;;
38366;Laerm;943;51.568;6.998;2023-02-22T16:59:09;51.32;41.15;68.60;;
38366;Laerm;943;51.568;6.998;2023-02-22T17:01:37;50.85;41.83;66.53;;
38366;Laerm;943;51.568;6.998;2023-02-22T17:04:23;48.21;42.02;69.19;;
38366;Laerm;943;51.568;6.998;2023-02-22T17:06:52;50.74;41.90;68.36;;
38366;Laerm;943;51.568;6.998;2023-02-22T17:09:21;48.46;41.11;74.70;;
38366;Laerm;943;51.568;6.998;2023-02-22T17:11:52;48.25;40.81;60.69;;
38366;Laerm;943;51.568;6.998;2023-02-22T17:14:33;49.85;41.49;65.56;;
38366;Laerm;943;51.568;6.998;2023-02-22T17:17:02;50.91;41.38;66.88;;